Time;durP1;ratioP1;P1;durP2;ratioP2;P2;SDS_P1;SDS_P2;PMS_P1;PMS_P2;Temp;Humidity;BMP_temperature;BMP_pressure;BME280_temperature;BME280_humidity;BME280_pressure;Samples;Min_cycle;Max_cycle;Signal;HPM_P1;HPM_P2
2022/07/24 00:01:10;;;;;;;;;;;23.00;45.90;;;;;;5028110;28;20010;-57
2022/07/24 00:03:37;;;;;;;;;;;23.00;45.90;;;;;;5022636;28;19925;-57
2022/07/24 00:06:06;;;;;;;;;;;23.00;45.90;;;;;;5029282;28;19928;-58
2022/07/24 00:08:32;;;;;;;;;;;23.00;45.90;;;;;;5041815;28;19929;-55
2022/07/24 00:10:59;;;;;;;;;;;23.00;45.90;;;;;;5030827;28;20374;-56
2022/07/24 00:13:26;;;;;;;;;;;23.00;45.90;;;;;;5024371;28;20390;-58
2022/07/24 00:15:53;;;;;;;;;;;23.00;45.90;;;;;;5035166;28;19948;-56
2022/07/24 00:18:20;;;;;;;;;;;23.00;45.90;;;;;;5023234;28;19960;-56
2022/07/24 00:20:46;;;;;;;;;;;23.00;45.90;;;;;;5016079;28;20020;-57
2022/07/24 00:23:15;;;;;;;;;;;23.00;45.80;;;;;;5017343;28;19967;-59
2022/07/24 00:25:42;;;;;;;;;;;23.00;45.90;;;;;;5020517;28;19944;-56
2022/07/24 00:28:09;;;;;;;;;;;23.00;45.80;;;;;;5018760;28;19929;-56
2022/07/24 00:30:37;;;;;;;;;;;22.90;45.80;;;;;;5024984;28;19968;-57
2022/07/24 00:33:04;;;;;;;;;;;23.00;45.80;;;;;;5041676;28;19927;-58
2022/07/24 00:35:31;;;;;;;;;;;23.00;45.80;;;;;;5020717;28;19921;-56
2022/07/24 00:37:57;;;;;;;;;;;23.00;45.80;;;;;;5022405;28;19920;-58
2022/07/24 00:40:36;;;;;;;;;;;22.90;45.80;;;;;;5017084;28;19975;-57
2022/07/24 00:43:03;;;;;;;;;;;23.00;45.80;;;;;;5022006;28;19948;-55
2022/07/24 00:45:30;;;;;;;;;;;22.90;45.80;;;;;;5062457;28;19964;-57
2022/07/24 00:47:57;;;;;;;;;;;22.90;45.70;;;;;;5043986;28;19921;-58
2022/07/24 00:50:24;;;;;;;;;;;22.90;45.70;;;;;;5028630;28;20330;-56
2022/07/24 00:52:50;;;;;;;;;;;22.90;45.70;;;;;;5030212;28;19960;-55
2022/07/24 00:55:19;;;;;;;;;;;22.90;45.70;;;;;;5047644;28;19921;-55
2022/07/24 00:57:48;;;;;;;;;;;22.90;45.70;;;;;;5037914;28;19948;-56
2022/07/24 01:00:15;;;;;;;;;;;22.90;45.70;;;;;;5030641;28;19931;-57
2022/07/24 01:02:42;;;;;;;;;;;22.90;45.70;;;;;;5031515;28;19975;-57
2022/07/24 01:05:09;;;;;;;;;;;22.90;45.70;;;;;;5044120;28;20383;-56
2022/07/24 01:07:36;;;;;;;;;;;22.90;45.60;;;;;;5018256;28;20283;-57
2022/07/24 01:10:02;;;;;;;;;;;22.90;45.60;;;;;;5048236;28;19921;-56
2022/07/24 01:12:29;;;;;;;;;;;22.90;45.60;;;;;;5038184;28;20136;-58
2022/07/24 01:14:57;;;;;;;;;;;22.90;45.60;;;;;;5032849;28;19922;-54
2022/07/24 01:17:24;;;;;;;;;;;22.90;45.60;;;;;;5054707;28;19963;-56
2022/07/24 01:19:51;;;;;;;;;;;22.90;45.50;;;;;;5045441;28;19921;-56
2022/07/24 01:22:19;;;;;;;;;;;22.90;45.50;;;;;;5039859;28;20347;-57
2022/07/24 01:24:46;;;;;;;;;;;22.90;45.50;;;;;;5054097;28;19925;-56
2022/07/24 01:27:13;;;;;;;;;;;22.90;45.40;;;;;;5039783;28;20384;-56
2022/07/24 01:29:40;;;;;;;;;;;22.90;45.40;;;;;;5038884;28;20429;-57
2022/07/24 01:32:07;;;;;;;;;;;22.90;45.40;;;;;;5041430;28;19925;-53
2022/07/24 01:34:33;;;;;;;;;;;22.80;45.40;;;;;;5032768;28;19921;-57
2022/07/24 01:37:00;;;;;;;;;;;22.90;45.40;;;;;;5037454;28;20420;-58
2022/07/24 01:39:28;;;;;;;;;;;22.90;45.40;;;;;;5040734;28;19920;-56
2022/07/24 01:41:55;;;;;;;;;;;22.80;45.30;;;;;;5032226;28;19921;-58
2022/07/24 01:44:22;;;;;;;;;;;22.90;45.40;;;;;;5027016;28;19928;-57
2022/07/24 01:46:49;;;;;;;;;;;22.80;45.30;;;;;;5028232;28;19976;-57
2022/07/24 01:49:15;;;;;;;;;;;22.80;45.20;;;;;;5042063;28;19925;-58
2022/07/24 01:51:42;;;;;;;;;;;22.80;45.20;;;;;;5024526;28;19921;-56
2022/07/24 01:54:09;;;;;;;;;;;22.80;45.20;;;;;;5057459;28;20377;-56
2022/07/24 01:56:37;;;;;;;;;;;22.80;45.80;;;;;;5038293;28;19947;-56
2022/07/24 01:59:04;;;;;;;;;;;22.80;45.20;;;;;;5035636;28;19975;-58
2022/07/24 02:01:31;;;;;;;;;;;22.80;45.20;;;;;;5030639;28;19925;-56
2022/07/24 02:03:57;;;;;;;;;;;22.80;45.20;;;;;;5027621;28;19925;-57
2022/07/24 02:06:24;;;;;;;;;;;22.80;45.20;;;;;;5030587;28;20013;-55
2022/07/24 02:08:51;;;;;;;;;;;22.80;45.20;;;;;;5032144;28;20274;-57
2022/07/24 02:11:19;;;;;;;;;;;22.80;45.20;;;;;;5032243;28;19921;-57
2022/07/24 02:13:47;;;;;;;;;;;22.80;45.10;;;;;;5027218;28;19920;-57
2022/07/24 02:16:14;;;;;;;;;;;22.80;45.10;;;;;;5042957;28;19987;-59
2022/07/24 02:18:40;;;;;;;;;;;22.80;45.10;;;;;;5046921;28;19947;-57
2022/07/24 02:21:07;;;;;;;;;;;22.80;45.10;;;;;;5058691;28;20433;-55
2022/07/24 02:23:34;;;;;;;;;;;22.70;45.10;;;;;;5040881;28;19924;-57
2022/07/24 02:26:00;;;;;;;;;;;22.80;45.10;;;;;;5042263;28;20023;-57
2022/07/24 02:28:27;;;;;;;;;;;22.80;45.10;;;;;;5032843;28;20386;-55
2022/07/24 02:30:55;;;;;;;;;;;22.70;45.10;;;;;;5060948;28;20016;-57
2022/07/24 02:33:23;;;;;;;;;;;22.70;45.20;;;;;;5032089;28;19921;-56
2022/07/24 02:35:49;;;;;;;;;;;22.70;45.10;;;;;;5031402;28;19921;-57
2022/07/24 02:38:16;;;;;;;;;;;22.70;45.10;;;;;;5056460;28;19921;-59
2022/07/24 02:40:43;;;;;;;;;;;22.70;45.10;;;;;;5047195;28;19921;-55
2022/07/24 02:43:09;;;;;;;;;;;22.70;45.20;;;;;;5065266;28;20381;-58
2022/07/24 02:45:36;;;;;;;;;;;22.70;45.20;;;;;;5031320;28;20323;-56
2022/07/24 02:48:05;;;;;;;;;;;22.70;45.10;;;;;;5038131;28;19979;-55
2022/07/24 02:50:32;;;;;;;;;;;22.70;45.20;;;;;;5048923;28;19974;-56
2022/07/24 02:52:59;;;;;;;;;;;22.70;45.20;;;;;;5034029;28;19931;-58
2022/07/24 02:55:28;;;;;;;;;;;22.70;45.80;;;;;;5051303;28;19928;-57
2022/07/24 02:57:54;;;;;;;;;;;22.70;45.30;;;;;;5034003;28;19949;-56
2022/07/24 03:00:21;;;;;;;;;;;22.70;45.60;;;;;;5045362;28;20012;-58
2022/07/24 03:02:48;;;;;;;;;;;22.70;45.30;;;;;;5027570;28;19925;-56
2022/07/24 03:05:16;;;;;;;;;;;22.70;45.30;;;;;;5012608;28;20330;-56
2022/07/24 03:07:43;;;;;;;;;;;22.70;45.30;;;;;;5030656;28;20278;-59
2022/07/24 03:10:10;;;;;;;;;;;22.70;45.30;;;;;;5046245;28;19921;-57
2022/07/24 03:12:37;;;;;;;;;;;22.70;45.30;;;;;;5029332;28;20240;-56
2022/07/24 03:15:04;;;;;;;;;;;22.70;45.30;;;;;;5044698;28;19929;-56
2022/07/24 03:17:30;;;;;;;;;;;22.70;45.40;;;;;;5025760;28;19929;-57
2022/07/24 03:19:59;;;;;;;;;;;22.70;45.30;;;;;;5033125;28;19921;-56
2022/07/24 03:22:28;;;;;;;;;;;22.70;45.30;;;;;;5035928;28;19921;-57
2022/07/24 03:24:55;;;;;;;;;;;22.70;45.40;;;;;;5064346;28;19928;-57
2022/07/24 03:27:21;;;;;;;;;;;22.70;45.40;;;;;;5020165;28;19967;-56
2022/07/24 03:29:48;;;;;;;;;;;22.70;45.30;;;;;;5022668;28;19979;-56
2022/07/24 03:32:15;;;;;;;;;;;22.70;45.40;;;;;;5036104;28;19944;-55
2022/07/24 03:34:42;;;;;;;;;;;22.70;45.40;;;;;;5044201;28;20430;-56
2022/07/24 03:37:08;;;;;;;;;;;22.70;45.40;;;;;;5035304;28;19929;-53
2022/07/24 03:39:36;;;;;;;;;;;22.70;45.40;;;;;;5061602;28;19921;-57
2022/07/24 03:42:03;;;;;;;;;;;22.70;45.40;;;;;;5029383;28;19968;-58
2022/07/24 03:44:30;;;;;;;;;;;22.70;45.40;;;;;;5058943;28;19921;-56
2022/07/24 03:46:57;;;;;;;;;;;22.70;45.30;;;;;;5055962;28;19925;-54
2022/07/24 03:49:24;;;;;;;;;;;22.60;45.20;;;;;;5018376;28;20299;-58
2022/07/24 03:51:50;;;;;;;;;;;22.70;45.30;;;;;;5033269;28;19921;-56
2022/07/24 03:54:17;;;;;;;;;;;22.70;45.30;;;;;;5030681;28;19921;-58
2022/07/24 03:56:45;;;;;;;;;;;22.70;45.30;;;;;;5035820;28;19928;-56
2022/07/24 03:59:12;;;;;;;;;;;22.70;45.30;;;;;;5040968;28;19976;-56
2022/07/24 04:01:39;;;;;;;;;;;22.70;45.40;;;;;;5026864;28;19929;-57
2022/07/24 04:04:06;;;;;;;;;;;22.70;45.30;;;;;;5033027;28;19982;-58
2022/07/24 04:06:33;;;;;;;;;;;22.60;45.30;;;;;;5017518;28;20298;-55
2022/07/24 04:08:59;;;;;;;;;;;22.60;45.20;;;;;;5063309;28;20270;-56
2022/07/24 04:11:26;;;;;;;;;;;22.70;45.40;;;;;;5014849;28;19971;-55
2022/07/24 04:13:54;;;;;;;;;;;22.70;45.40;;;;;;5033821;28;19920;-55
2022/07/24 04:16:21;;;;;;;;;;;22.60;45.20;;;;;;5046379;28;19968;-57
2022/07/24 04:18:48;;;;;;;;;;;22.60;45.30;;;;;;5027146;28;19924;-57
2022/07/24 04:21:15;;;;;;;;;;;22.60;45.20;;;;;;5047832;28;19924;-59
2022/07/24 04:23:42;;;;;;;;;;;22.60;45.20;;;;;;5012428;28;20326;-56
2022/07/24 04:26:08;;;;;;;;;;;22.60;45.20;;;;;;5020219;28;20358;-58
2022/07/24 04:28:35;;;;;;;;;;;22.60;45.20;;;;;;5045033;28;19931;-56
2022/07/24 04:31:04;;;;;;;;;;;22.60;45.30;;;;;;5043892;28;19936;-57
2022/07/24 04:33:31;;;;;;;;;;;22.60;45.20;;;;;;5029760;28;19987;-58
2022/07/24 04:35:58;;;;;;;;;;;22.60;45.20;;;;;;5026020;28;19922;-54
2022/07/24 04:38:24;;;;;;;;;;;22.60;45.30;;;;;;5014166;28;20015;-55
2022/07/24 04:40:51;;;;;;;;;;;22.60;45.30;;;;;;5042617;28;19987;-55
2022/07/24 04:43:18;;;;;;;;;;;22.60;45.30;;;;;;5029560;28;20024;-57
2022/07/24 04:45:45;;;;;;;;;;;22.60;45.30;;;;;;5024771;28;19960;-58
2022/07/24 04:48:13;;;;;;;;;;;22.60;45.30;;;;;;5026991;28;19925;-56
2022/07/24 04:50:40;;;;;;;;;;;22.60;45.40;;;;;;5031899;28;20441;-58
2022/07/24 04:53:06;;;;;;;;;;;22.60;45.30;;;;;;5033100;28;19982;-59
2022/07/24 04:55:33;;;;;;;;;;;22.60;45.30;;;;;;5021943;28;20000;-58
2022/07/24 04:58:00;;;;;;;;;;;22.60;45.30;;;;;;5030783;28;20811;-56
2022/07/24 05:00:26;;;;;;;;;;;22.60;45.30;;;;;;5045847;28;19921;-57
2022/07/24 05:02:53;;;;;;;;;;;22.60;45.40;;;;;;5025337;28;19943;-55
2022/07/24 05:05:21;;;;;;;;;;;22.60;45.40;;;;;;5011408;28;19921;-56
2022/07/24 05:07:48;;;;;;;;;;;22.60;45.40;;;;;;5055574;28;19971;-58
2022/07/24 05:10:15;;;;;;;;;;;22.60;45.40;;;;;;5064741;28;19925;-56
2022/07/24 05:12:42;;;;;;;;;;;22.60;45.40;;;;;;5030152;28;19925;-59
2022/07/24 05:15:09;;;;;;;;;;;22.60;45.50;;;;;;5009411;28;19975;-59
2022/07/24 05:17:36;;;;;;;;;;;22.60;45.50;;;;;;5050090;28;19925;-57
2022/07/24 05:20:03;;;;;;;;;;;22.60;45.60;;;;;;5025992;28;19928;-57
2022/07/24 05:22:31;;;;;;;;;;;22.60;45.50;;;;;;5030016;28;19978;-57
2022/07/24 05:24:58;;;;;;;;;;;22.60;45.60;;;;;;5014541;28;19975;-57
2022/07/24 05:27:25;;;;;;;;;;;22.60;45.60;;;;;;5018800;28;19921;-59
2022/07/24 05:29:54;;;;;;;;;;;22.60;45.60;;;;;;5033875;28;20029;-56
2022/07/24 05:32:21;;;;;;;;;;;22.60;45.70;;;;;;5036078;28;19928;-58
2022/07/24 05:34:47;;;;;;;;;;;22.60;45.70;;;;;;5027402;28;20429;-57
2022/07/24 05:37:14;;;;;;;;;;;22.60;45.70;;;;;;5024780;28;19933;-55
2022/07/24 05:39:42;;;;;;;;;;;22.60;45.70;;;;;;5045313;28;19929;-57
2022/07/24 05:42:09;;;;;;;;;;;22.60;45.80;;;;;;5047304;28;20337;-59
2022/07/24 05:44:37;;;;;;;;;;;22.60;45.80;;;;;;5032915;28;20115;-57
2022/07/24 05:47:03;;;;;;;;;;;22.60;45.90;;;;;;5032601;28;19921;-60
2022/07/24 05:49:30;;;;;;;;;;;22.60;45.90;;;;;;5035272;28;19921;-59
2022/07/24 05:51:57;;;;;;;;;;;22.60;45.90;;;;;;5033464;28;20378;-56
2022/07/24 05:54:23;;;;;;;;;;;22.60;45.90;;;;;;5041305;28;19925;-60
2022/07/24 05:56:52;;;;;;;;;;;22.60;45.90;;;;;;5034519;28;20015;-60
2022/07/24 05:59:19;;;;;;;;;;;22.60;45.90;;;;;;5033424;28;19921;-60
2022/07/24 06:01:45;;;;;;;;;;;22.60;45.90;;;;;;5033387;28;19975;-57
2022/07/24 06:04:12;;;;;;;;;;;22.60;46.00;;;;;;5067154;28;20044;-60
2022/07/24 06:06:39;;;;;;;;;;;22.60;46.00;;;;;;5035707;28;19932;-58
2022/07/24 06:09:05;;;;;;;;;;;22.70;46.10;;;;;;5032579;28;20433;-57
2022/07/24 06:11:33;;;;;;;;;;;22.60;46.00;;;;;;5066446;28;19921;-58
2022/07/24 06:14:01;;;;;;;;;;;22.70;46.10;;;;;;5066867;28;20329;-57
2022/07/24 06:16:28;;;;;;;;;;;22.60;46.10;;;;;;5063599;28;20381;-57
2022/07/24 06:18:55;;;;;;;;;;;22.70;46.20;;;;;;5067350;28;19928;-60
2022/07/24 06:21:21;;;;;;;;;;;22.70;46.20;;;;;;5038362;28;19921;-58
2022/07/24 06:23:48;;;;;;;;;;;22.70;46.20;;;;;;5034487;28;19975;-58
2022/07/24 06:26:15;;;;;;;;;;;22.70;46.20;;;;;;5035169;28;19925;-57
2022/07/24 06:28:41;;;;;;;;;;;22.70;46.20;;;;;;5040061;28;19933;-59
2022/07/24 06:31:13;;;;;;;;;;;22.70;46.30;;;;;;5034192;28;19925;-58
2022/07/24 06:33:39;;;;;;;;;;;22.70;46.30;;;;;;5036397;28;19929;-59
2022/07/24 06:36:07;;;;;;;;;;;22.70;46.40;;;;;;5065699;28;20317;-59
2022/07/24 06:38:33;;;;;;;;;;;22.70;46.40;;;;;;5034093;28;19927;-59
2022/07/24 06:41:00;;;;;;;;;;;22.70;46.40;;;;;;5041946;28;20416;-59
2022/07/24 06:43:27;;;;;;;;;;;22.70;46.40;;;;;;5029492;28;19972;-58
2022/07/24 06:45:54;;;;;;;;;;;22.70;46.40;;;;;;5068616;28;19975;-58
2022/07/24 06:48:22;;;;;;;;;;;22.70;46.50;;;;;;5067244;28;19925;-58
2022/07/24 06:50:49;;;;;;;;;;;22.70;46.50;;;;;;5033593;28;19961;-58
2022/07/24 06:53:15;;;;;;;;;;;22.70;46.50;;;;;;5030484;28;20023;-56
2022/07/24 06:55:42;;;;;;;;;;;22.70;46.60;;;;;;5031042;28;19921;-59
2022/07/24 06:58:09;;;;;;;;;;;22.70;46.60;;;;;;5030659;28;19975;-58
2022/07/24 07:00:36;;;;;;;;;;;22.80;46.70;;;;;;5032362;28;19925;-57
2022/07/24 07:03:02;;;;;;;;;;;22.70;46.70;;;;;;5039496;28;19974;-58
2022/07/24 07:05:30;;;;;;;;;;;22.80;46.70;;;;;;5037589;28;19925;-58
2022/07/24 07:07:57;;;;;;;;;;;22.70;46.70;;;;;;5039896;28;20184;-57
2022/07/24 07:10:24;;;;;;;;;;;22.80;46.80;;;;;;5025612;28;20275;-59
2022/07/24 07:12:50;;;;;;;;;;;22.80;46.90;;;;;;5036247;28;19925;-60
2022/07/24 07:15:17;;;;;;;;;;;22.80;46.90;;;;;;5035871;28;19925;-60
2022/07/24 07:17:44;;;;;;;;;;;22.80;46.90;;;;;;5067519;28;20189;-58
2022/07/24 07:20:11;;;;;;;;;;;22.80;46.90;;;;;;5029155;28;20317;-58
2022/07/24 07:22:39;;;;;;;;;;;22.80;46.90;;;;;;5031721;28;20023;-58
2022/07/24 07:25:06;;;;;;;;;;;22.80;47.00;;;;;;5062557;28;19979;-57
2022/07/24 07:27:33;;;;;;;;;;;22.80;47.00;;;;;;5043861;28;19944;-57
2022/07/24 07:30:00;;;;;;;;;;;22.80;47.00;;;;;;5032127;28;19925;-58
2022/07/24 07:32:30;;;;;;;;;;;22.80;47.00;;;;;;5065120;28;19928;-60
2022/07/24 07:34:56;;;;;;;;;;;22.80;47.00;;;;;;5031007;28;19990;-56
2022/07/24 07:37:23;;;;;;;;;;;22.90;47.10;;;;;;5036685;28;19921;-58
2022/07/24 07:39:52;;;;;;;;;;;22.80;47.00;;;;;;5028316;28;19944;-58
2022/07/24 07:42:22;;;;;;;;;;;22.80;47.10;;;;;;5033721;28;20265;-58
2022/07/24 07:44:50;;;;;;;;;;;22.80;47.10;;;;;;5047736;28;20642;-59
2022/07/24 07:47:17;;;;;;;;;;;22.90;47.20;;;;;;5017729;28;19953;-56
2022/07/24 07:49:44;;;;;;;;;;;22.90;47.20;;;;;;5024488;28;19967;-58
2022/07/24 07:52:11;;;;;;;;;;;22.90;47.30;;;;;;5023891;28;19965;-57
2022/07/24 07:54:38;;;;;;;;;;;22.90;47.30;;;;;;5029122;28;19967;-59
2022/07/24 07:57:06;;;;;;;;;;;22.90;47.30;;;;;;5018321;28;20190;-60
2022/07/24 07:59:33;;;;;;;;;;;22.90;47.40;;;;;;5012601;28;20032;-58
2022/07/24 08:02:00;;;;;;;;;;;22.90;47.30;;;;;;5042342;28;20034;-59
2022/07/24 08:04:26;;;;;;;;;;;22.90;47.40;;;;;;5025226;28;19921;-57
2022/07/24 08:06:53;;;;;;;;;;;22.90;47.50;;;;;;5017091;28;19925;-59
2022/07/24 08:09:20;;;;;;;;;;;22.90;47.50;;;;;;5020310;28;19921;-59
2022/07/24 08:11:47;;;;;;;;;;;22.90;47.60;;;;;;5044458;28;20010;-58
2022/07/24 08:14:15;;;;;;;;;;;22.90;47.60;;;;;;5031169;28;20000;-58
2022/07/24 08:16:42;;;;;;;;;;;22.90;47.60;;;;;;5026558;28;19928;-58
2022/07/24 08:19:09;;;;;;;;;;;22.90;47.60;;;;;;5019882;28;20237;-58
2022/07/24 08:21:36;;;;;;;;;;;22.90;47.70;;;;;;5044326;28;20339;-59
2022/07/24 08:24:02;;;;;;;;;;;22.90;47.60;;;;;;5031923;28;19967;-58
2022/07/24 08:26:30;;;;;;;;;;;22.90;47.70;;;;;;5020893;28;19925;-57
2022/07/24 08:28:57;;;;;;;;;;;23.00;47.70;;;;;;5051372;28;20031;-57
2022/07/24 08:31:26;;;;;;;;;;;23.00;47.80;;;;;;5021689;28;19925;-58
2022/07/24 08:33:53;;;;;;;;;;;23.00;47.80;;;;;;5019558;28;20420;-59
2022/07/24 08:36:19;;;;;;;;;;;23.00;47.80;;;;;;5026762;28;19967;-56
2022/07/24 08:38:46;;;;;;;;;;;23.00;47.80;;;;;;5030803;28;20028;-58
2022/07/24 08:41:13;;;;;;;;;;;23.00;47.80;;;;;;5022504;28;20031;-57
2022/07/24 08:43:39;;;;;;;;;;;23.00;47.80;;;;;;5028295;28;19933;-58
2022/07/24 08:46:07;;;;;;;;;;;23.00;47.90;;;;;;5028056;28;20646;-59
2022/07/24 08:48:35;;;;;;;;;;;23.00;48.50;;;;;;5025446;28;20355;-58
2022/07/24 08:51:03;;;;;;;;;;;23.00;48.00;;;;;;5021712;28;19921;-58
2022/07/24 08:53:30;;;;;;;;;;;23.00;48.00;;;;;;5022002;28;19925;-57
2022/07/24 08:56:00;;;;;;;;;;;23.00;48.10;;;;;;5031360;28;19961;-57
2022/07/24 08:58:27;;;;;;;;;;;23.10;48.30;;;;;;5034730;28;19964;-57
2022/07/24 09:00:53;;;;;;;;;;;23.00;48.30;;;;;;5056989;28;19967;-58
2022/07/24 09:03:20;;;;;;;;;;;23.10;48.40;;;;;;5028598;28;19947;-57
2022/07/24 09:05:55;;;;;;;;;;;23.10;48.40;;;;;;5032785;28;19929;-57
2022/07/24 09:08:21;;;;;;;;;;;23.10;48.40;;;;;;5038656;28;19927;-57
2022/07/24 09:10:55;;;;;;;;;;;23.10;48.40;;;;;;5033007;28;20402;-57
2022/07/24 09:13:22;;;;;;;;;;;23.10;48.40;;;;;;5030328;28;19937;-56
2022/07/24 09:15:49;;;;;;;;;;;23.10;48.40;;;;;;5039016;28;19932;-58
2022/07/24 09:18:36;;;;;;;;;;;23.10;48.60;;;;;;5030757;28;19929;-58
2022/07/24 09:21:12;;;;;;;;;;;23.10;48.60;;;;;;5024702;28;19975;-57
2022/07/24 09:23:39;;;;;;;;;;;23.10;48.50;;;;;;5062407;28;19991;-57
2022/07/24 09:26:07;;;;;;;;;;;23.10;48.40;;;;;;5028757;28;20408;-57
2022/07/24 09:28:46;;;;;;;;;;;23.10;48.50;;;;;;5029822;28;19925;-58
2022/07/24 09:31:13;;;;;;;;;;;23.10;48.50;;;;;;5019588;28;19957;-57
2022/07/24 09:33:40;;;;;;;;;;;23.10;48.60;;;;;;5021060;28;19922;-58
2022/07/24 09:36:13;;;;;;;;;;;23.10;48.60;;;;;;5038157;28;20044;-57
2022/07/24 09:38:40;;;;;;;;;;;23.10;48.60;;;;;;5032175;28;20011;-56
2022/07/24 09:41:07;;;;;;;;;;;23.10;48.50;;;;;;5033960;28;20385;-57
2022/07/24 09:43:36;;;;;;;;;;;23.10;48.50;;;;;;5038753;28;19921;-57
2022/07/24 09:46:04;;;;;;;;;;;23.10;48.40;;;;;;5030847;28;19952;-59
2022/07/24 09:48:32;;;;;;;;;;;23.20;48.50;;;;;;5035460;28;19929;-57
2022/07/24 09:51:00;;;;;;;;;;;23.20;48.50;;;;;;5068134;28;19983;-58
2022/07/24 09:53:28;;;;;;;;;;;23.20;48.40;;;;;;5037163;28;19974;-59
2022/07/24 09:55:59;;;;;;;;;;;23.20;48.40;;;;;;5037297;28;19926;-57
2022/07/24 09:58:26;;;;;;;;;;;23.20;48.30;;;;;;5011133;28;19976;-56
2022/07/24 10:00:53;;;;;;;;;;;23.20;48.30;;;;;;5056243;28;19921;-57
2022/07/24 10:03:20;;;;;;;;;;;23.20;48.30;;;;;;5028220;28;19993;-56
2022/07/24 10:05:47;;;;;;;;;;;23.20;48.30;;;;;;5030544;28;19974;-57
2022/07/24 10:08:14;;;;;;;;;;;23.30;48.30;;;;;;5031682;28;20297;-56
2022/07/24 10:10:43;;;;;;;;;;;23.20;48.20;;;;;;5028699;28;19925;-58
2022/07/24 10:13:09;;;;;;;;;;;23.30;48.30;;;;;;5033298;28;19988;-57
2022/07/24 10:15:36;;;;;;;;;;;23.30;48.30;;;;;;5026104;28;19926;-62
2022/07/24 10:18:10;;;;;;;;;;;23.30;48.20;;;;;;5060430;28;19977;-62
2022/07/24 10:20:38;;;;;;;;;;;23.30;48.20;;;;;;5029057;28;20321;-62
2022/07/24 10:23:05;;;;;;;;;;;23.30;48.20;;;;;;5027102;28;19921;-62
2022/07/24 10:25:34;;;;;;;;;;;23.30;48.20;;;;;;5028874;28;19929;-62
2022/07/24 10:28:02;;;;;;;;;;;23.30;48.10;;;;;;5035742;28;20270;-63
2022/07/24 10:30:29;;;;;;;;;;;23.30;48.70;;;;;;5032732;28;19921;-62
2022/07/24 10:32:56;;;;;;;;;;;23.30;48.10;;;;;;5033923;28;20428;-62
2022/07/24 10:35:23;;;;;;;;;;;23.30;48.70;;;;;;5033276;28;19929;-61
2022/07/24 10:37:53;;;;;;;;;;;23.30;48.10;;;;;;5031400;28;19929;-62
2022/07/24 10:40:21;;;;;;;;;;;23.30;48.10;;;;;;5025313;28;20290;-62
2022/07/24 10:43:18;;;;;;;;;;;23.30;48.10;;;;;;5038816;28;19971;-61
2022/07/24 10:45:47;;;;;;;;;;;23.30;48.10;;;;;;5028405;28;20004;-62
2022/07/24 10:48:41;;;;;;;;;;;23.30;48.10;;;;;;5021766;28;20383;-62
2022/07/24 10:51:11;;;;;;;;;;;23.30;48.00;;;;;;5040764;28;19937;-62
2022/07/24 10:53:45;;;;;;;;;;;23.30;48.10;;;;;;5034084;28;20008;-62
2022/07/24 10:56:15;;;;;;;;;;;23.30;48.00;;;;;;5038813;28;19932;-62
2022/07/24 10:58:51;;;;;;;;;;;23.30;48.10;;;;;;5033324;28;19952;-61
2022/07/24 11:01:28;;;;;;;;;;;23.30;48.10;;;;;;5032729;28;19986;-62
2022/07/24 11:03:55;;;;;;;;;;;23.40;48.10;;;;;;5031801;28;19925;-62
2022/07/24 11:06:38;;;;;;;;;;;23.40;48.10;;;;;;5039819;28;19929;-62
2022/07/24 11:09:04;;;;;;;;;;;23.40;48.10;;;;;;5030201;28;20418;-62
2022/07/24 11:11:31;;;;;;;;;;;23.40;48.10;;;;;;5037323;28;19921;-62
2022/07/24 11:13:59;;;;;;;;;;;23.40;48.10;;;;;;5033654;28;19929;-62
2022/07/24 11:16:34;;;;;;;;;;;23.30;48.10;;;;;;5032591;28;19948;-62
2022/07/24 11:19:20;;;;;;;;;;;23.40;48.10;;;;;;5040260;28;19955;-62
2022/07/24 11:21:48;;;;;;;;;;;23.40;48.10;;;;;;5036819;28;19924;-62
2022/07/24 11:24:15;;;;;;;;;;;23.40;48.10;;;;;;5053302;28;20159;-63
2022/07/24 11:26:42;;;;;;;;;;;23.40;48.10;;;;;;5064457;28;19967;-63
2022/07/24 11:29:13;;;;;;;;;;;23.40;48.10;;;;;;5037487;28;19960;-62
2022/07/24 11:31:39;;;;;;;;;;;23.40;48.10;;;;;;5063169;28;20760;-62
2022/07/24 11:34:06;;;;;;;;;;;23.40;48.10;;;;;;5035112;28;19929;-62
2022/07/24 11:36:33;;;;;;;;;;;23.40;48.10;;;;;;5068789;28;19920;-62
2022/07/24 11:39:01;;;;;;;;;;;23.40;48.20;;;;;;5027457;28;19964;-62
2022/07/24 11:41:28;;;;;;;;;;;23.40;48.10;;;;;;5031156;28;19967;-61
2022/07/24 11:43:55;;;;;;;;;;;23.50;48.20;;;;;;5070342;28;19933;-62
2022/07/24 11:46:33;;;;;;;;;;;23.40;48.20;;;;;;5032038;28;19925;-61
2022/07/24 11:49:02;;;;;;;;;;;23.40;48.20;;;;;;5031136;28;19983;-62
2022/07/24 11:51:29;;;;;;;;;;;23.40;48.20;;;;;;5033019;28;19925;-62
2022/07/24 11:53:56;;;;;;;;;;;23.40;48.20;;;;;;5030794;28;19933;-62
2022/07/24 11:56:24;;;;;;;;;;;23.40;48.20;;;;;;5063078;28;19921;-62
2022/07/24 11:58:51;;;;;;;;;;;23.40;48.20;;;;;;5031570;28;19960;-62
2022/07/24 12:01:21;;;;;;;;;;;23.40;48.20;;;;;;5037582;28;20314;-62
2022/07/24 12:03:51;;;;;;;;;;;23.40;48.30;;;;;;5063964;28;19960;-62
2022/07/24 12:06:18;;;;;;;;;;;23.50;48.40;;;;;;5035578;28;19927;-62
2022/07/24 12:08:45;;;;;;;;;;;23.50;48.40;;;;;;5063421;28;20047;-62
2022/07/24 12:11:12;;;;;;;;;;;23.50;48.40;;;;;;5032033;28;19948;-62
2022/07/24 12:13:43;;;;;;;;;;;23.50;48.40;;;;;;5062354;28;20405;-63
2022/07/24 12:16:09;;;;;;;;;;;23.50;48.40;;;;;;5064913;28;19941;-62
2022/07/24 12:18:36;;;;;;;;;;;23.50;48.50;;;;;;5063993;28;19925;-62
2022/07/24 12:21:03;;;;;;;;;;;23.50;48.40;;;;;;5029883;28;20126;-62
2022/07/24 12:23:30;;;;;;;;;;;23.50;48.50;;;;;;5030172;28;19995;-62
2022/07/24 12:25:57;;;;;;;;;;;23.50;48.50;;;;;;5032479;28;19933;-62
2022/07/24 12:28:23;;;;;;;;;;;23.60;48.50;;;;;;5033320;28;19921;-62
2022/07/24 12:30:52;;;;;;;;;;;23.50;48.50;;;;;;5030495;28;20325;-62
2022/07/24 12:33:22;;;;;;;;;;;23.50;48.50;;;;;;5032300;28;20008;-62
2022/07/24 12:35:53;;;;;;;;;;;23.60;48.60;;;;;;5028316;28;19927;-62
2022/07/24 12:38:23;;;;;;;;;;;23.50;48.50;;;;;;5033369;28;19928;-62
2022/07/24 12:40:50;;;;;;;;;;;23.60;48.50;;;;;;5027320;28;19925;-62
2022/07/24 12:43:17;;;;;;;;;;;23.60;48.50;;;;;;5039663;28;19937;-62
2022/07/24 12:45:44;;;;;;;;;;;23.60;48.60;;;;;;5025924;28;20309;-64
2022/07/24 12:48:17;;;;;;;;;;;23.60;48.60;;;;;;5032047;28;19932;-63
2022/07/24 12:50:58;;;;;;;;;;;23.60;48.60;;;;;;5031148;28;19933;-63
2022/07/24 12:53:24;;;;;;;;;;;23.60;48.70;;;;;;5049709;28;19920;-63
2022/07/24 12:56:00;;;;;;;;;;;23.60;48.80;;;;;;5036816;28;19928;-63
2022/07/24 12:58:27;;;;;;;;;;;23.60;48.80;;;;;;5047151;28;19921;-63
2022/07/24 13:00:56;;;;;;;;;;;23.60;48.80;;;;;;5027275;28;19932;-63
2022/07/24 13:03:26;;;;;;;;;;;23.60;48.80;;;;;;5029308;28;19927;-63
2022/07/24 13:05:55;;;;;;;;;;;23.70;49.00;;;;;;5029062;28;19928;-63
2022/07/24 13:08:21;;;;;;;;;;;23.70;48.90;;;;;;5061895;28;20293;-63
2022/07/24 13:10:48;;;;;;;;;;;23.70;48.90;;;;;;5031792;28;19956;-63
2022/07/24 13:13:16;;;;;;;;;;;23.70;48.80;;;;;;5062651;28;20015;-64
2022/07/24 13:15:42;;;;;;;;;;;23.70;48.70;;;;;;5031765;28;20309;-63
2022/07/24 13:18:09;;;;;;;;;;;23.80;48.70;;;;;;5026524;28;19925;-63
2022/07/24 13:20:37;;;;;;;;;;;23.80;48.60;;;;;;5031410;28;19957;-63
2022/07/24 13:23:04;;;;;;;;;;;23.80;48.50;;;;;;5032425;28;19921;-63
2022/07/24 13:25:31;;;;;;;;;;;23.80;48.50;;;;;;5021861;28;19921;-62
2022/07/24 13:27:58;;;;;;;;;;;23.80;48.40;;;;;;5032805;28;19921;-63
2022/07/24 13:30:25;;;;;;;;;;;23.80;48.40;;;;;;5066741;28;20019;-63
2022/07/24 13:32:51;;;;;;;;;;;23.90;48.50;;;;;;5040960;28;19956;-63
2022/07/24 13:35:18;;;;;;;;;;;23.90;48.50;;;;;;5031281;28;20260;-63
2022/07/24 13:37:49;;;;;;;;;;;23.90;48.50;;;;;;5032216;28;20434;-63
2022/07/24 13:40:16;;;;;;;;;;;23.90;48.50;;;;;;5041246;28;20321;-63
2022/07/24 13:42:43;;;;;;;;;;;23.90;48.50;;;;;;5031129;28;19928;-63
2022/07/24 13:45:10;;;;;;;;;;;23.90;48.50;;;;;;5026854;28;20267;-63
2022/07/24 13:47:37;;;;;;;;;;;23.90;48.50;;;;;;5042651;28;19928;-63
2022/07/24 13:50:04;;;;;;;;;;;23.90;48.50;;;;;;5040828;28;19921;-63
2022/07/24 13:52:31;;;;;;;;;;;23.90;48.50;;;;;;5048338;28;20018;-63
2022/07/24 13:54:59;;;;;;;;;;;23.90;48.50;;;;;;5028538;28;19932;-63
2022/07/24 13:57:26;;;;;;;;;;;23.90;48.50;;;;;;5030771;28;19921;-63
2022/07/24 13:59:52;;;;;;;;;;;23.90;48.50;;;;;;5029511;28;19925;-63
2022/07/24 14:02:19;;;;;;;;;;;23.90;48.60;;;;;;5032529;28;20436;-63
2022/07/24 14:04:46;;;;;;;;;;;23.90;49.10;;;;;;5033614;28;20027;-63
2022/07/24 14:07:13;;;;;;;;;;;23.90;48.50;;;;;;5027270;28;19931;-63
2022/07/24 14:09:40;;;;;;;;;;;23.90;48.50;;;;;;5059801;28;19929;-63
2022/07/24 14:12:08;;;;;;;;;;;23.90;48.50;;;;;;5038954;28;19932;-63
2022/07/24 14:14:35;;;;;;;;;;;23.90;48.50;;;;;;5041768;28;19968;-63
2022/07/24 14:17:02;;;;;;;;;;;23.80;48.40;;;;;;5029126;28;19921;-63
2022/07/24 14:19:29;;;;;;;;;;;23.80;48.40;;;;;;5045472;28;20393;-63